createdAt,value
2019-03-21T00:00:49.485Z,922.55
2019-03-21T00:01:48.004Z,922.54
2019-03-21T00:02:48.004Z,922.53
2019-03-21T00:03:47.985Z,922.55
2019-03-21T00:04:48.023Z,922.56
2019-03-21T00:05:48.021Z,922.56
2019-03-21T00:06:47.952Z,922.55
2019-03-21T00:07:47.944Z,922.58
2019-03-21T00:08:47.927Z,922.58
2019-03-21T00:09:47.922Z,922.59
2019-03-21T00:10:47.960Z,922.60
2019-03-21T00:11:47.895Z,922.59
2019-03-21T00:12:47.884Z,922.59
2019-03-21T00:13:47.876Z,922.60
2019-03-21T00:14:47.871Z,922.63
2019-03-21T00:15:47.858Z,922.61
2019-03-21T00:16:47.998Z,922.62
2019-03-21T00:17:47.835Z,922.64
2019-03-21T00:18:47.826Z,922.61
2019-03-21T00:19:47.846Z,922.65
2019-03-21T00:20:47.828Z,922.63
2019-03-21T00:21:47.791Z,922.66
2019-03-21T00:22:47.833Z,922.64
2019-03-21T00:23:47.772Z,922.61
2019-03-21T00:24:47.759Z,922.63
2019-03-21T00:25:47.752Z,922.67
2019-03-21T00:26:47.743Z,922.60
2019-03-21T00:27:47.737Z,922.65
2019-03-21T00:28:47.824Z,922.64
2019-03-21T00:29:47.706Z,922.67
2019-03-21T00:30:47.700Z,922.62
2019-03-21T00:31:47.689Z,922.64
2019-03-21T00:32:47.678Z,922.64
2019-03-21T00:33:47.671Z,922.64
2019-03-21T00:34:47.859Z,922.67
2019-03-21T00:35:47.648Z,922.65
2019-03-21T00:36:47.654Z,922.70
2019-03-21T00:37:47.621Z,922.66
2019-03-21T00:38:47.616Z,922.68
2019-03-21T00:39:47.604Z,922.67
2019-03-21T00:40:47.643Z,922.61
2019-03-21T00:41:47.582Z,922.64
2019-03-21T00:42:47.571Z,922.61
2019-03-21T00:43:47.570Z,922.62
2019-03-21T00:44:47.549Z,922.64
2019-03-21T00:45:47.539Z,922.64
2019-03-21T00:46:47.632Z,922.63
2019-03-21T00:47:47.518Z,922.65
2019-03-21T00:48:47.504Z,922.64
2019-03-21T00:49:47.499Z,922.63
2019-03-21T00:50:47.489Z,922.68
2019-03-21T00:51:47.475Z,922.70
2019-03-21T00:52:47.617Z,922.70
2019-03-21T00:53:47.456Z,922.73
2019-03-21T00:54:47.443Z,922.74
2019-03-21T00:55:47.431Z,922.74
2019-03-21T00:56:47.421Z,922.75
2019-03-21T00:57:47.414Z,922.76
2019-03-21T00:58:47.453Z,922.78
2019-03-21T00:59:47.387Z,922.77
2019-03-21T01:00:47.385Z,922.74
2019-03-21T01:01:47.370Z,922.78
2019-03-21T01:02:47.355Z,922.76
2019-03-21T01:03:47.350Z,922.80
2019-03-21T01:04:47.391Z,922.80
2019-03-21T01:05:47.331Z,922.81
2019-03-21T01:06:47.317Z,922.80
2019-03-21T01:07:47.308Z,922.82
2019-03-21T01:08:47.296Z,922.81
2019-03-21T01:09:47.285Z,922.86
2019-03-21T01:10:47.528Z,922.88
2019-03-21T01:11:47.261Z,922.86
2019-03-21T01:12:47.255Z,922.88
2019-03-21T01:13:47.245Z,922.90
2019-03-21T01:14:47.229Z,922.90
2019-03-21T01:15:47.222Z,922.94
2019-03-21T01:16:47.262Z,922.93
2019-03-21T01:17:47.197Z,922.89
2019-03-21T01:18:47.192Z,922.86
2019-03-21T01:19:47.182Z,922.90
2019-03-21T01:20:47.171Z,922.86
2019-03-21T01:21:47.159Z,922.89
2019-03-21T01:22:47.249Z,922.93
2019-03-21T01:23:47.137Z,922.94
2019-03-21T01:24:47.125Z,922.91
2019-03-21T01:25:47.117Z,922.91
2019-03-21T01:26:47.105Z,922.92
2019-03-21T01:27:47.095Z,922.89
2019-03-21T01:28:47.240Z,922.88
2019-03-21T01:29:47.078Z,922.92
2019-03-21T01:30:47.060Z,922.93
2019-03-21T01:31:47.058Z,922.92
2019-03-21T01:32:47.045Z,922.96
2019-03-21T01:33:47.033Z,922.98
2019-03-21T01:34:47.071Z,922.94
2019-03-21T01:35:47.011Z,922.95
2019-03-21T01:36:46.999Z,922.98
2019-03-21T01:37:46.987Z,922.98
2019-03-21T01:38:46.976Z,923.01
2019-03-21T01:39:46.967Z,922.96
2019-03-21T01:40:47.011Z,922.97
2019-03-21T01:41:46.946Z,922.99
2019-03-21T01:42:46.941Z,922.98
2019-03-21T01:43:46.927Z,922.96
2019-03-21T01:44:46.915Z,922.96
2019-03-21T01:45:46.901Z,922.97
2019-03-21T01:46:47.046Z,922.96
2019-03-21T01:47:46.884Z,923.00
2019-03-21T01:48:46.875Z,923.01
2019-03-21T01:49:46.862Z,923.00
2019-03-21T01:50:46.850Z,923.06
2019-03-21T01:51:46.842Z,922.97
2019-03-21T01:52:46.928Z,923.03
2019-03-21T01:53:46.821Z,923.05
2019-03-21T01:54:46.814Z,922.99
2019-03-21T01:55:46.801Z,923.02
2019-03-21T01:56:46.788Z,923.00
2019-03-21T01:57:46.775Z,923.03
2019-03-21T01:58:46.869Z,923.02
2019-03-21T01:59:46.757Z,922.92
2019-03-21T02:00:46.751Z,922.96
2019-03-21T02:01:46.737Z,922.96
2019-03-21T02:02:46.727Z,922.99
2019-03-21T02:03:46.716Z,923.04
2019-03-21T02:04:46.857Z,923.10
2019-03-21T02:05:46.693Z,923.05
2019-03-21T02:06:46.683Z,923.08
2019-03-21T02:07:46.673Z,923.05
2019-03-21T02:08:46.662Z,923.03
2019-03-21T02:09:46.648Z,923.08
2019-03-21T02:10:46.687Z,923.07
2019-03-21T02:11:46.627Z,923.13
2019-03-21T02:12:46.618Z,923.14
2019-03-21T02:13:46.607Z,923.18
2019-03-21T02:14:52.053Z,923.10
2019-03-21T02:15:46.640Z,923.15
2019-03-21T02:16:46.674Z,923.11
2019-03-21T02:17:46.559Z,923.15
2019-03-21T02:18:46.555Z,923.11
2019-03-21T02:19:46.547Z,923.18
2019-03-21T02:20:46.535Z,923.16
2019-03-21T02:21:46.525Z,923.17
2019-03-21T02:22:46.663Z,923.12
2019-03-21T02:23:46.503Z,923.16
2019-03-21T02:24:46.492Z,923.16
2019-03-21T02:25:46.483Z,923.13
2019-03-21T02:26:46.470Z,923.14
2019-03-21T02:27:46.456Z,923.17
2019-03-21T02:28:46.552Z,923.15
2019-03-21T02:29:46.438Z,923.12
2019-03-21T02:30:46.432Z,923.11
2019-03-21T02:31:46.421Z,923.11
2019-03-21T02:32:46.411Z,923.14
2019-03-21T02:33:46.426Z,923.15
2019-03-21T02:34:46.484Z,923.15
2019-03-21T02:35:46.376Z,923.20
2019-03-21T02:36:46.372Z,923.20
2019-03-21T02:37:46.448Z,923.14
2019-03-21T02:38:46.345Z,923.18
2019-03-21T02:39:58.907Z,923.18
2019-03-21T02:40:47.471Z,923.21
2019-03-21T02:41:46.311Z,923.21
2019-03-21T02:42:46.306Z,923.22
2019-03-21T02:43:46.292Z,923.21
2019-03-21T02:44:46.431Z,923.28
2019-03-21T02:45:46.272Z,923.27
2019-03-21T02:46:46.310Z,923.23
2019-03-21T02:47:46.263Z,923.22
2019-03-21T02:48:46.239Z,923.22
2019-03-21T02:49:46.226Z,923.18
2019-03-21T02:50:46.226Z,923.20
2019-03-21T02:51:46.217Z,923.20
2019-03-21T02:52:46.248Z,923.20
2019-03-21T02:53:46.182Z,923.18
2019-03-21T02:54:46.173Z,923.17
2019-03-21T02:55:46.158Z,923.23
2019-03-21T02:56:46.160Z,923.19
2019-03-21T02:57:46.144Z,923.18
2019-03-21T02:58:46.184Z,923.23
2019-03-21T02:59:46.116Z,923.23
2019-03-21T03:00:46.107Z,923.21
2019-03-21T03:01:46.099Z,923.24
2019-03-21T03:02:46.092Z,923.25
2019-03-21T03:03:46.080Z,923.28
2019-03-21T03:04:46.121Z,923.27
2019-03-21T03:05:46.060Z,923.28
2019-03-21T03:06:46.053Z,923.23
2019-03-21T03:07:46.041Z,923.26
2019-03-21T03:08:46.033Z,923.24
2019-03-21T03:09:46.021Z,923.24
2019-03-21T03:10:46.112Z,923.24
2019-03-21T03:11:45.997Z,923.25
2019-03-21T03:12:45.988Z,923.27
2019-03-21T03:13:45.979Z,923.29
2019-03-21T03:14:45.973Z,923.32
2019-03-21T03:15:45.953Z,923.37
2019-03-21T03:16:45.995Z,923.35
2019-03-21T03:17:45.937Z,923.35
2019-03-21T03:18:45.925Z,923.37
2019-03-21T03:19:45.916Z,923.36
2019-03-21T03:20:45.902Z,923.40
2019-03-21T03:21:45.903Z,923.43
2019-03-21T03:22:45.933Z,923.37
2019-03-21T03:23:45.871Z,923.41
2019-03-21T03:24:45.865Z,923.40
2019-03-21T03:25:45.854Z,923.41
2019-03-21T03:26:45.842Z,923.39
2019-03-21T03:27:45.831Z,923.43
2019-03-21T03:28:45.871Z,923.37
2019-03-21T03:29:45.810Z,923.36
2019-03-21T03:30:45.801Z,923.30
2019-03-21T03:31:45.828Z,923.37
2019-03-21T03:32:45.783Z,923.34
2019-03-21T03:33:45.779Z,923.34
2019-03-21T03:34:45.875Z,923.35
2019-03-21T03:35:45.744Z,923.37
2019-03-21T03:36:45.737Z,923.40
2019-03-21T03:37:45.726Z,923.39
2019-03-21T03:38:45.713Z,923.40
2019-03-21T03:39:45.706Z,923.44
2019-03-21T03:40:45.800Z,923.43
2019-03-21T03:41:45.698Z,923.40
2019-03-21T03:42:45.674Z,923.39
2019-03-21T03:43:45.680Z,923.39
2019-03-21T03:44:45.652Z,923.40
2019-03-21T03:45:45.642Z,923.45
2019-03-21T03:46:45.682Z,923.45
2019-03-21T03:47:45.622Z,923.45
2019-03-21T03:48:45.619Z,923.47
2019-03-21T03:49:45.600Z,923.48
2019-03-21T03:50:45.600Z,923.51
2019-03-21T03:51:45.582Z,923.51
2019-03-21T03:52:45.622Z,923.54
2019-03-21T03:53:45.555Z,923.51
2019-03-21T03:54:45.550Z,923.52
2019-03-21T03:55:45.538Z,923.53
2019-03-21T03:56:45.524Z,923.51
2019-03-21T03:57:45.516Z,923.52
2019-03-21T03:58:45.554Z,923.48
2019-03-21T03:59:45.501Z,923.52
2019-03-21T04:00:45.493Z,923.50
2019-03-21T04:01:45.472Z,923.50
2019-03-21T04:02:45.464Z,923.48
2019-03-21T04:03:45.459Z,923.48
2019-03-21T04:04:45.498Z,923.52
2019-03-21T04:05:45.431Z,923.52
2019-03-21T04:06:45.430Z,923.51
2019-03-21T04:07:45.414Z,923.53
2019-03-21T04:08:45.399Z,923.51
2019-03-21T04:09:45.391Z,923.54
2019-03-21T04:10:45.427Z,923.55
2019-03-21T04:11:45.373Z,923.55
2019-03-21T04:12:45.362Z,923.57
2019-03-21T04:13:45.347Z,923.53
2019-03-21T04:14:45.354Z,923.59
2019-03-21T04:15:52.685Z,923.57
2019-03-21T04:16:46.480Z,923.56
2019-03-21T04:17:45.311Z,923.58
2019-03-21T04:18:45.317Z,923.57
2019-03-21T04:19:45.308Z,923.62
2019-03-21T04:20:45.271Z,923.57
2019-03-21T04:21:45.265Z,923.57
2019-03-21T04:22:45.356Z,923.58
2019-03-21T04:23:45.283Z,923.56
2019-03-21T04:24:45.233Z,923.59
2019-03-21T04:25:45.216Z,923.65
2019-03-21T04:26:45.218Z,923.58
2019-03-21T04:27:45.201Z,923.56
2019-03-21T04:28:45.291Z,923.61
2019-03-21T04:29:45.176Z,923.60
2019-03-21T04:30:45.166Z,923.55
2019-03-21T04:31:45.159Z,923.54
2019-03-21T04:32:45.149Z,923.57
2019-03-21T04:33:45.142Z,923.54
2019-03-21T04:34:45.178Z,923.53
2019-03-21T04:35:45.118Z,923.52
2019-03-21T04:36:45.108Z,923.55
2019-03-21T04:37:45.098Z,923.52
2019-03-21T04:38:45.086Z,923.58
2019-03-21T04:39:45.076Z,923.53
2019-03-21T04:40:45.119Z,923.59
2019-03-21T04:41:45.063Z,923.60
2019-03-21T04:42:45.046Z,923.59
2019-03-21T04:43:45.032Z,923.60
2019-03-21T04:44:45.028Z,923.55
2019-03-21T04:45:45.012Z,923.57
2019-03-21T04:46:45.054Z,923.54
2019-03-21T04:47:44.991Z,923.54
2019-03-21T04:48:44.977Z,923.55
2019-03-21T04:49:44.973Z,923.53
2019-03-21T04:50:44.960Z,923.51
2019-03-21T04:51:44.948Z,923.50
2019-03-21T04:52:44.989Z,923.50
2019-03-21T04:53:44.930Z,923.52
2019-03-21T04:54:44.918Z,923.51
2019-03-21T04:55:44.904Z,923.57
2019-03-21T04:56:44.897Z,923.58
2019-03-21T04:57:44.885Z,923.57
2019-03-21T04:58:44.925Z,923.55
2019-03-21T04:59:44.878Z,923.55
2019-03-21T05:00:44.856Z,923.55
2019-03-21T05:01:44.843Z,923.51
2019-03-21T05:02:44.831Z,923.53
2019-03-21T05:03:44.821Z,923.50
2019-03-21T05:04:44.859Z,923.52
2019-03-21T05:05:44.805Z,923.50
2019-03-21T05:06:44.792Z,923.52
2019-03-21T05:07:44.834Z,923.45
2019-03-21T05:08:44.771Z,923.46
2019-03-21T05:09:44.762Z,923.47
2019-03-21T05:10:44.802Z,923.50
2019-03-21T05:11:44.739Z,923.49
2019-03-21T05:12:44.733Z,923.47
2019-03-21T05:13:44.720Z,923.46
2019-03-21T05:14:44.710Z,923.44
2019-03-21T05:15:44.700Z,923.42
2019-03-21T05:16:44.742Z,923.44
2019-03-21T05:17:44.678Z,923.46
2019-03-21T05:18:44.666Z,923.41
2019-03-21T05:19:44.660Z,923.42
2019-03-21T05:20:44.649Z,923.40
2019-03-21T05:21:44.633Z,923.39
2019-03-21T05:22:44.731Z,923.35
2019-03-21T05:23:44.617Z,923.38
2019-03-21T05:24:44.604Z,923.37
2019-03-21T05:25:44.593Z,923.33
2019-03-21T05:26:44.582Z,923.32
2019-03-21T05:27:44.576Z,923.31
2019-03-21T05:28:44.615Z,923.32
2019-03-21T05:29:44.553Z,923.32
2019-03-21T05:30:44.543Z,923.41
2019-03-21T05:31:44.536Z,923.37
2019-03-21T05:32:44.524Z,923.39
2019-03-21T05:33:44.515Z,923.35
2019-03-21T05:34:44.554Z,923.31
2019-03-21T05:35:44.494Z,923.29
2019-03-21T05:36:44.489Z,923.29
2019-03-21T05:37:44.477Z,923.25
2019-03-21T05:38:44.459Z,923.25
2019-03-21T05:39:44.451Z,923.21
2019-03-21T05:40:44.493Z,923.26
2019-03-21T05:41:44.431Z,923.22
2019-03-21T05:42:44.425Z,923.20
2019-03-21T05:43:44.406Z,923.17
2019-03-21T05:44:44.403Z,923.16
2019-03-21T05:45:44.392Z,923.15
2019-03-21T05:46:44.427Z,923.12
2019-03-21T05:47:44.369Z,923.10
2019-03-21T05:48:44.359Z,923.09
2019-03-21T05:49:44.347Z,923.05
2019-03-21T05:50:44.338Z,923.09
2019-03-21T05:51:44.328Z,923.08
2019-03-21T05:52:44.371Z,923.09
2019-03-21T05:53:44.310Z,923.04
2019-03-21T05:54:44.297Z,923.05
2019-03-21T05:55:44.282Z,923.05
2019-03-21T05:56:44.273Z,923.04
2019-03-21T05:57:44.265Z,923.00
2019-03-21T05:58:44.350Z,923.01
2019-03-21T05:59:44.239Z,923.02
2019-03-21T06:00:44.246Z,922.98
2019-03-21T06:01:44.218Z,922.98
2019-03-21T06:02:44.207Z,922.98
2019-03-21T06:03:44.197Z,922.96
2019-03-21T06:04:44.295Z,922.96
2019-03-21T06:05:44.179Z,923.01
2019-03-21T06:06:44.168Z,923.03
2019-03-21T06:07:44.160Z,923.00
2019-03-21T06:08:44.148Z,923.02
2019-03-21T06:09:44.136Z,922.96
2019-03-21T06:10:44.177Z,922.98
2019-03-21T06:11:44.107Z,922.99
2019-03-21T06:12:44.131Z,922.99
2019-03-21T06:13:44.092Z,923.00
2019-03-21T06:14:44.079Z,922.99
2019-03-21T06:15:44.070Z,922.96
2019-03-21T06:16:44.108Z,922.95
2019-03-21T06:17:44.044Z,922.96
2019-03-21T06:18:44.038Z,922.95
2019-03-21T06:19:44.026Z,922.96
2019-03-21T06:20:44.016Z,922.96
2019-03-21T06:21:44.001Z,922.89
2019-03-21T06:22:44.094Z,922.88
2019-03-21T06:23:43.982Z,922.84
2019-03-21T06:24:43.973Z,922.86
2019-03-21T06:25:43.964Z,922.85
2019-03-21T06:26:43.948Z,922.84
2019-03-21T06:27:43.938Z,922.86
2019-03-21T06:28:43.982Z,922.83
2019-03-21T06:29:43.918Z,922.82
2019-03-21T06:30:43.910Z,922.86
2019-03-21T06:31:43.898Z,922.88
2019-03-21T06:32:43.887Z,922.85
2019-03-21T06:33:43.874Z,922.87
2019-03-21T06:34:43.912Z,922.84
2019-03-21T06:35:43.857Z,922.83
2019-03-21T06:36:43.842Z,922.82
2019-03-21T06:37:43.844Z,922.83
2019-03-21T06:38:43.826Z,922.83
2019-03-21T06:39:43.810Z,922.80
2019-03-21T06:40:43.901Z,922.81
2019-03-21T06:41:43.790Z,922.81
2019-03-21T06:42:43.783Z,922.80
2019-03-21T06:43:43.767Z,922.79
2019-03-21T06:44:43.760Z,922.77
2019-03-21T06:45:48.144Z,922.73
2019-03-21T06:46:49.317Z,922.75
2019-03-21T06:47:44.829Z,922.74
2019-03-21T06:48:43.720Z,922.73
2019-03-21T06:49:46.305Z,922.75
2019-03-21T06:50:43.701Z,922.72
2019-03-21T06:51:43.688Z,922.71
2019-03-21T06:52:43.732Z,922.71
2019-03-21T06:53:43.665Z,922.69
2019-03-21T06:54:43.657Z,922.67
2019-03-21T06:55:43.646Z,922.66
2019-03-21T06:56:43.636Z,922.67
2019-03-21T06:57:43.626Z,922.65
2019-03-21T06:58:43.662Z,922.64
2019-03-21T06:59:43.605Z,922.65
2019-03-21T07:00:43.592Z,922.65
2019-03-21T07:01:43.587Z,922.66
2019-03-21T07:02:43.575Z,922.63
2019-03-21T07:03:43.558Z,922.64
2019-03-21T07:04:43.603Z,922.63
2019-03-21T07:05:43.543Z,922.60
2019-03-21T07:06:43.531Z,922.60
2019-03-21T07:07:43.525Z,922.55
2019-03-21T07:08:43.513Z,922.56
2019-03-21T07:09:43.497Z,922.57
2019-03-21T07:10:43.541Z,922.55
2019-03-21T07:11:43.471Z,922.54
2019-03-21T07:12:43.465Z,922.52
2019-03-21T07:13:43.453Z,922.51
2019-03-21T07:14:43.443Z,922.51
2019-03-21T07:15:43.439Z,922.53
2019-03-21T07:16:43.471Z,922.51
2019-03-21T07:17:43.410Z,922.50
2019-03-21T07:18:43.399Z,922.46
2019-03-21T07:19:43.413Z,922.48
2019-03-21T07:20:43.379Z,922.46
2019-03-21T07:21:43.367Z,922.45
2019-03-21T07:22:43.459Z,922.42
2019-03-21T07:23:43.346Z,922.50
2019-03-21T07:24:43.341Z,922.41
2019-03-21T07:25:43.336Z,922.39
2019-03-21T07:26:43.314Z,922.37
2019-03-21T07:27:43.303Z,922.39
2019-03-21T07:28:43.388Z,922.37
2019-03-21T07:29:43.282Z,922.34
2019-03-21T07:30:43.273Z,922.35
2019-03-21T07:31:43.256Z,922.31
2019-03-21T07:32:43.256Z,922.30
2019-03-21T07:33:43.237Z,922.22
2019-03-21T07:34:43.282Z,922.25
2019-03-21T07:35:43.219Z,922.29
2019-03-21T07:36:43.208Z,922.27
2019-03-21T07:37:43.195Z,922.23
2019-03-21T07:38:43.182Z,922.23
2019-03-21T07:39:43.175Z,922.20
2019-03-21T07:40:43.263Z,922.18
2019-03-21T07:41:43.152Z,922.19
2019-03-21T07:42:43.140Z,922.18
2019-03-21T07:43:43.131Z,922.12
2019-03-21T07:44:43.117Z,922.14
2019-03-21T07:45:43.107Z,922.07
2019-03-21T07:46:43.150Z,922.07
2019-03-21T07:47:43.092Z,922.11
2019-03-21T07:48:43.077Z,922.10
2019-03-21T07:49:43.070Z,922.12
2019-03-21T07:50:43.056Z,922.05
2019-03-21T07:51:45.167Z,922.02
2019-03-21T07:52:43.084Z,922.04
2019-03-21T07:53:43.028Z,922.04
2019-03-21T07:54:43.015Z,922.00
2019-03-21T07:55:43.005Z,921.99
2019-03-21T07:56:43.000Z,922.03
2019-03-21T07:57:42.979Z,922.02
2019-03-21T07:58:43.019Z,921.98
2019-03-21T07:59:42.962Z,922.00
2019-03-21T08:00:42.947Z,922.00
2019-03-21T08:01:42.945Z,921.96
2019-03-21T08:02:42.929Z,922.04
2019-03-21T08:03:42.914Z,922.04
2019-03-21T08:04:42.958Z,922.06
2019-03-21T08:05:42.893Z,922.01
2019-03-21T08:06:42.886Z,922.01
2019-03-21T08:07:42.878Z,922.01
2019-03-21T08:08:42.859Z,921.94
2019-03-21T08:09:42.945Z,921.90
2019-03-21T08:10:42.895Z,921.93
2019-03-21T08:11:42.833Z,921.92
2019-03-21T08:12:42.822Z,921.89
2019-03-21T08:13:42.813Z,921.89
2019-03-21T08:14:42.800Z,921.85
2019-03-21T08:15:42.792Z,921.87
2019-03-21T08:16:42.884Z,921.85
2019-03-21T08:17:42.770Z,921.83
2019-03-21T08:18:42.759Z,921.83
2019-03-21T08:19:42.751Z,921.81
2019-03-21T08:20:42.736Z,921.75
2019-03-21T08:21:42.727Z,921.74
2019-03-21T08:22:42.764Z,921.75
2019-03-21T08:23:42.703Z,921.75
2019-03-21T08:24:42.700Z,921.75
2019-03-21T08:25:42.687Z,921.69
2019-03-21T08:26:42.680Z,921.70
2019-03-21T08:27:42.667Z,921.63
2019-03-21T08:28:42.704Z,921.66
2019-03-21T08:29:42.643Z,921.63
2019-03-21T08:30:42.632Z,921.68
2019-03-21T08:31:42.619Z,921.66
2019-03-21T08:32:42.609Z,921.65
2019-03-21T08:33:42.600Z,921.61
2019-03-21T08:34:42.643Z,921.58
2019-03-21T08:35:42.582Z,921.63
2019-03-21T08:36:42.566Z,921.57
2019-03-21T08:37:42.558Z,921.50
2019-03-21T08:38:42.559Z,921.53
2019-03-21T08:39:42.534Z,921.50
2019-03-21T08:40:42.848Z,921.51
2019-03-21T08:41:42.518Z,921.53
2019-03-21T08:42:42.507Z,921.48
2019-03-21T08:43:42.497Z,921.50
2019-03-21T08:44:42.490Z,921.48
2019-03-21T08:45:42.476Z,921.48
2019-03-21T08:46:42.514Z,921.48
2019-03-21T08:47:42.450Z,921.49
2019-03-21T08:48:42.444Z,921.46
2019-03-21T08:49:42.429Z,921.48
2019-03-21T08:50:42.423Z,921.45
2019-03-21T08:51:42.410Z,921.46
2019-03-21T08:52:42.449Z,921.50
2019-03-21T08:53:42.387Z,921.45
2019-03-21T08:54:42.380Z,921.40
2019-03-21T08:55:42.366Z,921.43
2019-03-21T08:56:42.362Z,921.44
2019-03-21T08:57:42.342Z,921.43
2019-03-21T08:58:42.383Z,921.45
2019-03-21T08:59:42.324Z,921.37
2019-03-21T09:00:42.312Z,921.39
2019-03-21T09:01:42.299Z,921.40
2019-03-21T09:02:42.289Z,921.41
2019-03-21T09:03:42.291Z,921.42
2019-03-21T09:04:42.373Z,921.43
2019-03-21T09:05:42.263Z,921.46
2019-03-21T09:06:42.251Z,921.40
2019-03-21T09:07:42.238Z,921.39
2019-03-21T09:08:42.226Z,921.41
2019-03-21T09:09:42.216Z,921.40
2019-03-21T09:10:42.313Z,921.40
2019-03-21T09:11:42.191Z,921.35
2019-03-21T09:12:42.738Z,921.38
2019-03-21T09:13:42.169Z,921.31
2019-03-21T09:14:42.163Z,921.38
2019-03-21T09:15:42.150Z,921.30
2019-03-21T09:16:42.191Z,921.36
2019-03-21T09:17:42.125Z,921.36
2019-03-21T09:18:42.116Z,921.33
2019-03-21T09:19:42.109Z,921.33
2019-03-21T09:20:42.093Z,921.36
2019-03-21T09:21:42.085Z,921.32
2019-03-21T09:22:42.124Z,921.35
2019-03-21T09:23:42.063Z,921.32
2019-03-21T09:24:42.055Z,921.34
2019-03-21T09:25:42.042Z,921.35
2019-03-21T09:26:42.032Z,921.34
2019-03-21T09:27:42.019Z,921.33
2019-03-21T09:28:42.114Z,921.33
2019-03-21T09:29:52.811Z,921.37
2019-03-21T09:31:06.797Z,921.32
2019-03-21T09:32:06.820Z,921.30
2019-03-21T09:33:06.781Z,921.34
2019-03-21T09:34:06.819Z,921.33
2019-03-21T09:35:06.761Z,921.35
2019-03-21T09:36:06.748Z,921.34
2019-03-21T09:37:06.734Z,921.36
2019-03-21T09:38:06.727Z,921.35
2019-03-21T09:39:06.717Z,921.35
2019-03-21T09:40:06.752Z,921.36
2019-03-21T09:41:06.696Z,921.38
2019-03-21T09:42:06.684Z,921.38
2019-03-21T09:43:06.675Z,921.37
2019-03-21T09:44:06.661Z,921.40
2019-03-21T09:45:06.653Z,921.38
2019-03-21T09:46:06.696Z,921.41
2019-03-21T09:47:06.697Z,921.37
2019-03-21T09:48:06.622Z,921.38
2019-03-21T09:49:06.614Z,921.44
2019-03-21T09:50:06.599Z,921.41
2019-03-21T09:51:06.591Z,921.40
2019-03-21T09:52:06.628Z,921.39
2019-03-21T09:53:06.573Z,921.41
2019-03-21T09:54:09.867Z,921.40
2019-03-21T09:55:06.551Z,921.38
2019-03-21T09:56:06.538Z,921.38
2019-03-21T09:57:06.528Z,921.42
2019-03-21T09:58:06.621Z,921.38
2019-03-21T09:59:06.513Z,921.42
2019-03-21T10:00:06.508Z,921.41
2019-03-21T10:01:06.486Z,921.43
2019-03-21T10:02:06.474Z,921.46
2019-03-21T10:03:06.468Z,921.50
2019-03-21T10:04:06.504Z,921.47
2019-03-21T10:05:06.441Z,921.51
2019-03-21T10:06:06.435Z,921.54
2019-03-21T10:07:06.425Z,921.52
2019-03-21T10:08:06.415Z,921.51
2019-03-21T10:09:06.405Z,921.54
2019-03-21T10:10:06.447Z,921.58
2019-03-21T10:11:06.382Z,921.59
2019-03-21T10:12:06.372Z,921.59
2019-03-21T10:13:06.362Z,921.60
2019-03-21T10:14:06.352Z,921.62
2019-03-21T10:15:06.341Z,921.60
2019-03-21T10:16:06.385Z,921.66
2019-03-21T10:17:06.323Z,921.63
2019-03-21T10:18:06.307Z,921.64
2019-03-21T10:19:06.302Z,921.69
2019-03-21T10:20:06.291Z,921.68
2019-03-21T10:21:06.280Z,921.61
2019-03-21T10:22:06.368Z,921.59
2019-03-21T10:23:06.258Z,921.51
2019-03-21T10:24:06.245Z,921.69
2019-03-21T10:25:06.238Z,921.60
2019-03-21T10:26:06.228Z,921.64
2019-03-21T10:27:06.215Z,921.60
2019-03-21T10:28:06.310Z,921.46
2019-03-21T10:29:06.197Z,921.58
2019-03-21T10:30:06.190Z,921.50
2019-03-21T10:31:06.177Z,921.64
2019-03-21T10:32:14.241Z,921.61
2019-03-21T10:33:31.020Z,921.63
2019-03-21T10:34:31.007Z,921.53
2019-03-21T10:35:32.653Z,921.61
2019-03-21T10:36:30.987Z,921.64
2019-03-21T10:37:30.980Z,921.51
2019-03-21T10:38:31.073Z,921.44
2019-03-21T10:39:30.958Z,921.38
2019-03-21T10:40:30.949Z,921.37
2019-03-21T10:41:30.936Z,921.52
2019-03-21T10:42:30.926Z,921.67
2019-03-21T10:43:30.918Z,921.57
2019-03-21T10:44:31.006Z,921.52
2019-03-21T10:45:30.893Z,921.48
2019-03-21T10:46:30.889Z,921.43
2019-03-21T10:47:30.876Z,921.47
2019-03-21T10:48:30.871Z,921.43
2019-03-21T10:49:30.852Z,921.40
2019-03-21T10:50:30.894Z,921.46
2019-03-21T10:51:30.832Z,921.51
2019-03-21T10:52:30.825Z,921.54
2019-03-21T10:53:30.815Z,921.50
2019-03-21T10:54:30.804Z,921.51
2019-03-21T10:55:30.795Z,921.53
2019-03-21T10:56:30.833Z,921.47
2019-03-21T10:57:30.775Z,921.49
2019-03-21T10:58:30.765Z,921.54
2019-03-21T10:59:30.753Z,921.57
2019-03-21T11:00:30.742Z,921.56
2019-03-21T11:01:30.728Z,921.53
2019-03-21T11:02:30.773Z,921.65
2019-03-21T11:03:30.712Z,921.66
2019-03-21T11:04:30.702Z,921.56
2019-03-21T11:05:30.693Z,921.80
2019-03-21T11:06:30.678Z,921.73
2019-03-21T11:07:30.673Z,921.73
2019-03-21T11:08:30.712Z,921.63
2019-03-21T11:09:30.652Z,921.79
2019-03-21T11:10:30.672Z,921.57
2019-03-21T11:11:30.627Z,921.72
2019-03-21T11:12:30.621Z,921.74
2019-03-21T11:13:30.609Z,921.81
2019-03-21T11:14:30.653Z,921.83
2019-03-21T11:15:30.598Z,921.85
2019-03-21T11:16:31.564Z,921.80
2019-03-21T11:17:30.585Z,921.75
2019-03-21T11:18:36.073Z,921.80
2019-03-21T11:19:55.413Z,921.66
2019-03-21T11:20:55.403Z,921.85
2019-03-21T11:22:05.809Z,921.74
2019-03-21T11:23:20.200Z,921.89
2019-03-21T11:24:20.188Z,921.77
2019-03-21T11:25:20.225Z,921.61
2019-03-21T11:26:20.172Z,921.66
2019-03-21T11:27:20.154Z,921.82
2019-03-21T11:28:20.142Z,921.68
2019-03-21T11:29:20.134Z,921.71
2019-03-21T11:30:20.122Z,921.75
2019-03-21T11:31:20.167Z,921.67
2019-03-21T11:32:20.101Z,921.71
2019-03-21T11:33:20.094Z,921.66
2019-03-21T11:34:20.081Z,921.80
2019-03-21T11:35:20.076Z,921.74
2019-03-21T11:36:20.061Z,921.84
2019-03-21T11:37:20.097Z,921.68
2019-03-21T11:38:20.033Z,921.77
2019-03-21T11:39:20.028Z,921.78
2019-03-21T11:40:20.015Z,921.64
2019-03-21T11:41:20.004Z,921.66
2019-03-21T11:42:19.996Z,921.71
2019-03-21T11:43:20.091Z,921.65
2019-03-21T11:44:19.975Z,921.58
2019-03-21T11:45:19.977Z,921.60
2019-03-21T11:46:19.957Z,921.69
2019-03-21T11:47:19.943Z,921.64
2019-03-21T11:48:19.941Z,921.71
2019-03-21T11:49:19.997Z,921.84
2019-03-21T11:50:19.911Z,921.79
2019-03-21T11:51:19.900Z,921.82
2019-03-21T11:52:19.891Z,921.73
2019-03-21T11:53:19.907Z,921.84
2019-03-21T11:54:19.865Z,921.69
2019-03-21T11:55:20.078Z,921.76
2019-03-21T11:56:19.879Z,921.76
2019-03-21T11:57:19.832Z,921.58
2019-03-21T11:58:19.827Z,921.56
2019-03-21T11:59:19.815Z,921.53
2019-03-21T12:00:19.808Z,921.53
2019-03-21T12:01:19.848Z,921.65
2019-03-21T12:02:26.987Z,921.79
2019-03-21T12:03:44.588Z,921.96
2019-03-21T12:04:44.576Z,921.99
2019-03-21T12:05:44.565Z,921.67
2019-03-21T12:06:44.608Z,921.62
2019-03-21T12:07:44.546Z,921.84
2019-03-21T12:08:44.535Z,921.81
2019-03-21T12:09:44.522Z,921.85
2019-03-21T12:10:44.513Z,921.92
2019-03-21T12:11:44.497Z,921.89
2019-03-21T12:12:44.592Z,921.84
2019-03-21T12:13:44.475Z,921.98
2019-03-21T12:14:44.470Z,921.93
2019-03-21T12:15:44.455Z,921.89
2019-03-21T12:16:44.445Z,921.74
2019-03-21T12:17:44.437Z,922.01
2019-03-21T12:18:44.527Z,922.05
2019-03-21T12:19:44.412Z,922.06
2019-03-21T12:20:44.404Z,921.93
2019-03-21T12:21:44.396Z,921.88
2019-03-21T12:22:44.379Z,921.86
2019-03-21T12:23:44.368Z,921.83
2019-03-21T12:24:44.407Z,921.82
2019-03-21T12:25:44.349Z,921.82
2019-03-21T12:26:44.336Z,921.81
2019-03-21T12:27:44.333Z,921.96
2019-03-21T12:28:44.314Z,921.89
2019-03-21T12:29:44.302Z,921.76
2019-03-21T12:30:44.397Z,921.90